Ir al Módulo  



logo_vatsim
logo_vatsur

 


NUEVO SECTOR FILE COLOMBIA
Octubre 16 de 2014

Los invitamos a descargar el nuevo SectorFile de Colombia!




Festival Cuna de Acordeones
Octubre 12 de 2014

Los esperamos a todos en Riohacha y Valledupar el próximo Viernes 17 de Octubre!




Nuevo Escenario de Bogotá Recomendado
Septiembre 26 de 2014

Los invitamos a conocer el escenario desarrollado por LR30 Scenery Design de SKBO. Vatsim Colombia lo reconoce como escenario oficial de la red.

Links:

FS9: http://www.mediafire.com/download/gfuqcb7qb8r9q9n/BOG_2014_FS9.rar
FSX: http://www.mediafire.com/download/b8831kleqc5nc13/LR30_SKBO_V2.rar




 

 
Untitled Document
SKAR 251600Z 00000KT 9999 SCT020 SCT090 24/19 A3014
SKBG 251600Z 34004KT SCT015 SCT200 24/19 A3004
SKBO 251600Z 31009KT 9999 BKN020 18/12 A3035
SKBQ 251600Z 12005KT 9999 SCT020 33/27 A2988
SKCG 251600Z 30003KT 9999 VCSH BKN015 30/27 A2986 RERA RMK VCSH S/SE/E
SKCL 251600Z 20003KT 9999 SCT013 26/17 A3005
SKPE 251600Z 24004KT 9999 SCT016TCU 24/18 A3018 RMK TCU/N/E
SKRG 251600Z 03010KT 9999 VCSH BKN015TCU 18/13 A3035 RMK TCU/N/S VCSH/W/N